Archival Weather

Chicago O'Hare International

Chicago, Illinois (KORD)

Report from: Tuesday, May 2, 2023 8:51 PM CDT
Current time: Sunday, February 25, 2024 2:59 PM CST

Current weather – Weather history – Daily summaries
Weather forecast

Temperature9.4°C (48.9°F)
Wind chill6.3°C (43.3°F)
Dew point-0.6°C (30.9°F)
Winds 13 kts (6.7 m/s, 15 mph) North-Northwest (340°)
Wind gusts 27 kts (13.9 m/s, 31.1 mph)
Peak wind 28 kts (14.4 m/s, 32.2 mph) North-Northwest (330°) at 01:30
Visibility10 mi. (16.1 km)
Clouds Ceiling: Broken clouds 4,800 ft. (1,463 m)
Broken clouds 6,500 ft. (1,981 m)
Altimeter29.74 in.Hg (1007 mB)
Relative humidity50 %
Density altitude-381 ft. (-116 m)
Sea-level pressure100.7 kPa (1007 mB, 29.75 in.Hg)
Remarks Automated weather observing station with precipitation discriminator
Flight conditions Visual Meteorological Conditions
Raw dataKORD 030151Z 34013G27KT 10SM BKN048 BKN065 09/M01 A2974 RMK AO2 PK WND 33028/0130 SLP074 T00941006
An error has occurred. This application may no longer respond until reloaded. Reload 🗙